Time;durP1;ratioP1;P1;durP2;ratioP2;P2;SDS_P1;SDS_P2;PMS_P1;PMS_P2;Temp;Humidity;BMP_temperature;BMP_pressure;BME280_temperature;BME280_humidity;BME280_pressure;Samples;Min_cycle;Max_cycle;Signal;HPM_P1;HPM_P2
2022/09/12 00:00:47;;;;;;;16.77;11.88;;;15.00;99.90;;;;;;5099761;28;20059;-53
2022/09/12 00:03:12;;;;;;;15.38;12.30;;;15.00;99.90;;;;;;5099467;28;20048;-50
2022/09/12 00:05:45;;;;;;;15.25;12.63;;;15.00;99.90;;;;;;5098194;28;20416;-51
2022/09/12 00:08:12;;;;;;;15.10;12.80;;;15.00;99.90;;;;;;5096740;28;20055;-50
2022/09/12 00:10:42;;;;;;;15.30;12.63;;;14.90;99.90;;;;;;5098700;28;20063;-53
2022/09/12 00:13:08;;;;;;;16.02;12.93;;;15.00;99.90;;;;;;5099594;28;20048;-53
2022/09/12 00:15:42;;;;;;;16.35;13.80;;;15.00;99.90;;;;;;5097366;28;20502;-50
2022/09/12 00:18:11;;;;;;;15.98;13.65;;;14.90;99.90;;;;;;5079151;28;20040;-51
2022/09/12 00:20:41;;;;;;;16.63;13.73;;;15.00;99.90;;;;;;5078731;28;20569;-52
2022/09/12 00:23:07;;;;;;;16.52;13.77;;;15.00;99.90;;;;;;5078638;28;20083;-50
2022/09/12 00:25:32;;;;;;;18.77;15.27;;;15.00;99.90;;;;;;5079012;28;20045;-51
2022/09/12 00:27:58;;;;;;;18.27;14.50;;;15.00;99.90;;;;;;5078204;28;20086;-50
2022/09/12 00:30:24;;;;;;;15.65;13.82;;;15.10;99.90;;;;;;5077390;28;20137;-52
2022/09/12 00:32:50;;;;;;;16.90;14.48;;;15.10;99.90;;;;;;5078335;28;20054;-49
2022/09/12 00:35:16;;;;;;;17.23;14.95;;;15.00;99.90;;;;;;5078815;28;20040;-51
2022/09/12 00:37:41;;;;;;;17.20;14.63;;;15.10;99.90;;;;;;5082769;28;20685;-49
2022/09/12 00:40:07;;;;;;;18.95;15.82;;;15.00;99.90;;;;;;5098666;28;20052;-50
2022/09/12 00:42:33;;;;;;;18.00;16.08;;;15.00;99.90;;;;;;5098933;28;20048;-50
2022/09/12 00:44:59;;;;;;;16.60;14.80;;;14.90;99.90;;;;;;5098378;28;20054;-50
2022/09/12 00:47:28;;;;;;;16.73;14.98;;;15.00;99.90;;;;;;5099108;28;20069;-51
2022/09/12 00:50:08;;;;;;;16.90;15.10;;;15.00;99.90;;;;;;5098051;28;20676;-53
2022/09/12 00:52:48;;;;;;;16.77;15.00;;;14.90;99.90;;;;;;5098913;28;20040;-51
2022/09/12 00:55:36;;;;;;;18.50;14.45;;;14.90;99.90;;;;;;5098845;28;20063;-52
2022/09/12 00:58:11;;;;;;;17.35;15.55;;;15.00;99.90;;;;;;5096513;28;20048;-53
2022/09/12 01:00:37;;;;;;;16.75;15.00;;;14.90;99.90;;;;;;5098775;28;20056;-50
2022/09/12 01:03:13;;;;;;;22.25;15.82;;;14.90;99.90;;;;;;5098270;28;20052;-50
2022/09/12 01:05:43;;;;;;;18.23;16.33;;;14.90;99.90;;;;;;5098534;28;20044;-52
2022/09/12 01:08:10;;;;;;;18.75;15.75;;;14.80;99.90;;;;;;5098565;28;20535;-52
2022/09/12 01:10:39;;;;;;;18.33;15.55;;;14.80;99.90;;;;;;5097702;28;20043;-52
2022/09/12 01:13:07;;;;;;;19.40;16.10;;;14.80;99.90;;;;;;5098644;28;20089;-51
2022/09/12 01:15:33;;;;;;;17.92;15.32;;;14.80;99.90;;;;;;5097821;28;20104;-50
2022/09/12 01:18:17;;;;;;;18.83;16.67;;;14.80;99.90;;;;;;5079253;28;20056;-51
2022/09/12 01:20:48;;;;;;;17.42;15.50;;;14.70;99.90;;;;;;5078240;28;20091;-52
2022/09/12 01:23:28;;;;;;;17.10;15.35;;;14.80;99.90;;;;;;5077531;28;20079;-52
2022/09/12 01:26:29;;;;;;;18.67;15.52;;;14.80;99.90;;;;;;5078285;28;20047;-52
2022/09/12 01:29:00;;;;;;;18.77;16.88;;;14.70;99.90;;;;;;5077683;28;20051;-52
2022/09/12 01:31:41;;;;;;;20.00;16.92;;;14.70;99.90;;;;;;5077538;28;20049;-50
2022/09/12 01:34:33;;;;;;;19.63;17.15;;;14.70;99.90;;;;;;5078060;28;20059;-52
2022/09/12 01:37:27;;;;;;;17.90;15.27;;;14.70;99.90;;;;;;5077325;28;20125;-51
2022/09/12 01:40:13;;;;;;;18.92;16.63;;;14.70;99.90;;;;;;5077581;28;20060;-51
2022/09/12 01:42:39;;;;;;;18.85;16.55;;;14.70;99.90;;;;;;5077939;28;20040;-50
2022/09/12 01:45:14;;;;;;;18.52;16.17;;;14.70;99.90;;;;;;5077208;28;20063;-53
2022/09/12 01:47:52;;;;;;;18.65;16.65;;;14.60;99.90;;;;;;5077931;28;20044;-50
2022/09/12 01:50:29;;;;;;;19.70;17.70;;;14.70;99.90;;;;;;5077324;28;20524;-51
2022/09/12 01:53:02;;;;;;;21.20;18.30;;;14.60;99.90;;;;;;5077661;28;20123;-50
2022/09/12 01:55:58;;;;;;;20.17;17.85;;;14.70;99.90;;;;;;5077806;28;20086;-50
2022/09/12 01:58:33;;;;;;;20.60;16.73;;;14.60;99.90;;;;;;5077201;28;20073;-50
2022/09/12 02:01:26;;;;;;;20.45;17.70;;;14.50;99.90;;;;;;5077933;28;20523;-52
2022/09/12 02:04:14;;;;;;;19.92;17.42;;;14.60;99.90;;;;;;5077877;28;20123;-52
2022/09/12 02:06:54;;;;;;;19.10;17.02;;;14.50;99.90;;;;;;5077215;28;20435;-51
2022/09/12 02:09:25;;;;;;;19.85;17.48;;;14.50;99.90;;;;;;5077662;28;20562;-50
2022/09/12 02:11:55;;;;;;;20.00;17.92;;;14.50;99.90;;;;;;5077420;28;20036;-50
2022/09/12 02:14:25;;;;;;;19.48;17.38;;;14.40;99.90;;;;;;5077477;28;20051;-50
2022/09/12 02:16:57;;;;;;;19.23;17.23;;;14.40;99.90;;;;;;5087079;28;20044;-53
2022/09/12 02:19:28;;;;;;;21.38;18.13;;;14.40;99.90;;;;;;5095628;28;20068;-50
2022/09/12 02:22:00;;;;;;;19.50;17.40;;;14.50;99.90;;;;;;5098407;28;20040;-50
2022/09/12 02:24:32;;;;;;;20.13;17.92;;;14.40;99.90;;;;;;5097456;28;20048;-53
2022/09/12 02:27:23;;;;;;;20.33;17.02;;;14.40;99.90;;;;;;5097963;28;20119;-49
2022/09/12 02:29:49;;;;;;;19.00;17.00;;;14.40;99.90;;;;;;5096208;28;20515;-52
2022/09/12 02:32:28;;;;;;;19.38;17.08;;;14.40;99.90;;;;;;5100158;28;20173;-51
2022/09/12 02:35:07;;;;;;;20.17;18.15;;;14.30;99.90;;;;;;5101928;28;20047;-50
2022/09/12 02:37:51;;;;;;;21.95;18.30;;;14.40;99.90;;;;;;5101254;28;20104;-50
2022/09/12 02:40:17;;;;;;;19.60;17.27;;;14.30;99.90;;;;;;5100447;28;20054;-51
2022/09/12 02:42:43;;;;;;;19.92;17.85;;;14.30;99.90;;;;;;5101394;28;20032;-53
2022/09/12 02:45:10;;;;;;;19.65;17.60;;;14.30;99.90;;;;;;5100419;28;20047;-53
2022/09/12 02:47:43;;;;;;;22.40;18.40;;;14.30;99.90;;;;;;5101575;28;20597;-51
2022/09/12 02:50:09;;;;;;;19.48;16.77;;;14.30;99.90;;;;;;5100788;28;20051;-50
2022/09/12 02:52:35;;;;;;;20.27;18.17;;;14.20;99.90;;;;;;5101359;28;20123;-53
2022/09/12 02:55:04;;;;;;;20.98;18.35;;;14.20;99.90;;;;;;5101164;28;20047;-50
2022/09/12 02:57:30;;;;;;;21.33;17.48;;;14.20;99.90;;;;;;5100660;28;20484;-50
2022/09/12 02:59:59;;;;;;;19.77;17.65;;;14.20;99.90;;;;;;5100785;28;20065;-53
2022/09/12 03:02:50;;;;;;;21.30;18.60;;;14.20;99.90;;;;;;5100443;28;20051;-52
2022/09/12 03:05:33;;;;;;;20.48;18.05;;;14.20;99.90;;;;;;5100912;28;20054;-51
2022/09/12 03:08:14;;;;;;;20.65;17.98;;;14.20;99.90;;;;;;5100860;28;20036;-51
2022/09/12 03:10:48;;;;;;;22.42;17.33;;;14.10;99.90;;;;;;5099917;28;20167;-52
2022/09/12 03:13:45;;;;;;;21.95;18.95;;;14.20;99.90;;;;;;5101088;28;20255;-52
2022/09/12 03:16:42;;;;;;;20.90;18.25;;;14.00;99.90;;;;;;5096445;28;20123;-52
2022/09/12 03:19:46;;;;;;;21.77;18.02;;;14.10;99.90;;;;;;5079850;28;20079;-51
2022/09/12 03:22:22;;;;;;;19.35;17.25;;;14.10;99.90;;;;;;5080462;28;20055;-52
2022/09/12 03:25:11;;;;;;;19.95;17.77;;;14.10;99.90;;;;;;5080235;28;20048;-50
2022/09/12 03:28:08;;;;;;;22.05;18.80;;;14.00;99.90;;;;;;5079358;28;20056;-50
2022/09/12 03:30:46;;;;;;;21.83;18.45;;;14.10;99.90;;;;;;5079927;28;20061;-50
2022/09/12 03:33:13;;;;;;;21.15;18.73;;;14.10;99.90;;;;;;5080015;28;20041;-50
2022/09/12 03:35:39;;;;;;;22.00;19.58;;;14.00;99.90;;;;;;5080007;28;20113;-49
2022/09/12 03:38:06;;;;;;;19.92;17.75;;;14.00;99.90;;;;;;5087616;28;20040;-49
2022/09/12 03:40:33;;;;;;;19.85;17.13;;;13.90;99.90;;;;;;5099558;28;20059;-51
2022/09/12 03:42:59;;;;;;;20.50;18.27;;;13.90;99.90;;;;;;5081965;28;20040;-50
2022/09/12 03:45:25;;;;;;;21.63;17.00;;;14.00;99.90;;;;;;5099550;28;20047;-50
2022/09/12 03:47:50;;;;;;;19.20;17.17;;;14.00;99.90;;;;;;5100499;28;20097;-50
2022/09/12 03:50:16;;;;;;;19.90;17.40;;;14.00;99.90;;;;;;5099681;28;20044;-49
2022/09/12 03:52:42;;;;;;;18.27;16.27;;;14.10;99.90;;;;;;5100124;28;20044;-52
2022/09/12 03:55:08;;;;;;;20.73;17.50;;;13.90;99.90;;;;;;5081487;28;20043;-50
2022/09/12 03:57:33;;;;;;;19.17;16.17;;;13.80;99.90;;;;;;5099514;28;20081;-51
2022/09/12 04:00:00;;;;;;;19.48;16.75;;;14.00;99.90;;;;;;5099713;28;20099;-52
2022/09/12 04:02:27;;;;;;;19.67;17.58;;;13.90;99.90;;;;;;5099293;28;20051;-49
2022/09/12 04:04:52;;;;;;;18.77;16.75;;;14.00;99.90;;;;;;5100077;28;20048;-50
2022/09/12 04:07:18;;;;;;;20.77;17.60;;;14.00;99.90;;;;;;5099481;28;20036;-51
2022/09/12 04:09:44;;;;;;;19.98;17.13;;;13.90;99.90;;;;;;5099579;28;20093;-50
2022/09/12 04:12:10;;;;;;;20.75;18.00;;;13.90;99.90;;;;;;5099962;28;20035;-51
2022/09/12 04:14:35;;;;;;;21.45;19.08;;;13.90;99.90;;;;;;5099141;28;20044;-49
2022/09/12 04:17:01;;;;;;;21.60;18.00;;;13.80;99.90;;;;;;5088516;28;20067;-50
2022/09/12 04:19:27;;;;;;;23.05;19.20;;;13.90;99.90;;;;;;5078460;28;20048;-53
2022/09/12 04:21:53;;;;;;;23.13;19.08;;;13.90;99.90;;;;;;5079554;28;20133;-50
2022/09/12 04:24:18;;;;;;;23.02;19.13;;;13.90;99.90;;;;;;5078649;28;20393;-51
2022/09/12 04:26:44;;;;;;;25.23;21.52;;;13.90;99.90;;;;;;5079141;28;20052;-51
2022/09/12 04:29:13;;;;;;;28.20;20.92;;;13.90;99.90;;;;;;5079076;28;20079;-52
2022/09/12 04:31:51;;;;;;;24.58;20.73;;;13.90;99.90;;;;;;5082797;28;20128;-50
2022/09/12 04:34:17;;;;;;;25.80;20.02;;;13.90;99.90;;;;;;5085498;28;20539;-53
2022/09/12 04:36:43;;;;;;;25.33;20.45;;;14.00;99.90;;;;;;5093516;28;20036;-53
2022/09/12 04:39:10;;;;;;;28.95;20.95;;;13.90;99.90;;;;;;5095137;28;20048;-50
2022/09/12 04:41:39;;;;;;;26.35;20.88;;;13.90;99.90;;;;;;5088870;28;20029;-49
2022/09/12 04:44:09;;;;;;;25.60;20.98;;;13.90;99.90;;;;;;5078775;28;20151;-52
2022/09/12 04:46:37;;;;;;;28.02;22.50;;;14.00;99.90;;;;;;5078766;28;20048;-53
2022/09/12 04:49:03;;;;;;;26.33;21.55;;;13.90;99.90;;;;;;5079016;28;20036;-52
2022/09/12 04:51:32;;;;;;;27.63;21.48;;;14.10;99.90;;;;;;5098679;28;20113;-49
2022/09/12 04:54:07;;;;;;;28.10;21.75;;;14.10;99.90;;;;;;5096225;28;20348;-50
2022/09/12 04:56:37;;;;;;;29.80;22.83;;;14.00;99.90;;;;;;5098876;28;20051;-51
2022/09/12 04:59:02;;;;;;;27.70;21.48;;;14.10;99.90;;;;;;5097289;28;20054;-52
2022/09/12 05:01:29;;;;;;;27.48;21.80;;;14.00;99.90;;;;;;5098411;28;20087;-51
2022/09/12 05:03:56;;;;;;;29.17;22.35;;;14.10;99.90;;;;;;5098673;28;20070;-52
2022/09/12 05:06:24;;;;;;;30.33;23.15;;;14.10;99.90;;;;;;5095158;28;20055;-50
2022/09/12 05:08:51;;;;;;;30.02;23.55;;;14.00;99.90;;;;;;5078241;28;20092;-50
2022/09/12 05:11:20;;;;;;;30.10;23.27;;;14.00;99.90;;;;;;5077753;28;20055;-50
2022/09/12 05:13:46;;;;;;;33.22;25.40;;;14.10;99.90;;;;;;5078519;28;20401;-49
2022/09/12 05:16:15;;;;;;;32.38;24.52;;;14.00;99.90;;;;;;5078334;28;20028;-52
2022/09/12 05:18:41;;;;;;;33.80;25.05;;;14.20;99.90;;;;;;5077646;28;20048;-49
2022/09/12 05:21:10;;;;;;;32.42;23.90;;;14.10;99.90;;;;;;5078201;28;20072;-51
2022/09/12 05:23:35;;;;;;;31.40;23.08;;;14.10;99.90;;;;;;5077493;28;20040;-52
2022/09/12 05:26:03;;;;;;;32.03;23.77;;;14.10;99.90;;;;;;5078158;28;20078;-50
2022/09/12 05:28:38;;;;;;;34.65;23.80;;;14.20;99.90;;;;;;5077397;28;20052;-50
2022/09/12 05:31:10;;;;;;;35.58;24.98;;;14.20;99.90;;;;;;5077881;28;20060;-52
2022/09/12 05:33:37;;;;;;;34.30;25.20;;;14.20;99.90;;;;;;5078070;28;20098;-52
2022/09/12 05:36:06;;;;;;;36.08;24.98;;;14.30;99.90;;;;;;5077689;28;20558;-52
2022/09/12 05:38:34;;;;;;;33.85;26.08;;;14.20;99.90;;;;;;5088931;28;20036;-49
2022/09/12 05:41:07;;;;;;;36.15;25.67;;;14.20;99.90;;;;;;5090310;28;20126;-52
2022/09/12 05:43:33;;;;;;;33.80;24.95;;;14.40;99.90;;;;;;5078050;28;20386;-53
2022/09/12 05:46:01;;;;;;;32.13;24.15;;;14.30;99.90;;;;;;5077539;28;20045;-51
2022/09/12 05:48:27;;;;;;;32.92;24.42;;;14.40;99.90;;;;;;5076308;28;20044;-52
2022/09/12 05:51:00;;;;;;;35.95;25.85;;;14.40;99.90;;;;;;5077926;28;20052;-52
2022/09/12 05:53:27;;;;;;;32.92;25.55;;;14.50;99.90;;;;;;5077116;28;20146;-50
2022/09/12 05:56:09;;;;;;;31.40;24.35;;;14.50;99.90;;;;;;5077864;28;20119;-52
2022/09/12 05:58:37;;;;;;;32.08;25.13;;;14.60;99.90;;;;;;5077248;28;20044;-52
2022/09/12 06:01:06;;;;;;;33.13;24.92;;;14.70;99.90;;;;;;5077937;28;20057;-52
2022/09/12 06:03:38;;;;;;;33.65;24.58;;;14.60;99.90;;;;;;5077790;28;20055;-50
2022/09/12 06:06:05;;;;;;;34.72;23.92;;;14.60;99.90;;;;;;5080238;28;20142;-51
2022/09/12 06:08:32;;;;;;;31.90;23.65;;;14.70;99.90;;;;;;5081516;28;20066;-51
2022/09/12 06:10:59;;;;;;;32.38;24.48;;;14.70;99.90;;;;;;5080241;28;20055;-50
2022/09/12 06:13:25;;;;;;;34.00;25.77;;;14.60;99.90;;;;;;5081292;28;20052;-52
2022/09/12 06:15:50;;;;;;;33.63;25.23;;;14.70;99.90;;;;;;5080721;28;20040;-51
2022/09/12 06:18:16;;;;;;;35.33;26.58;;;14.80;99.90;;;;;;5080946;28;20079;-48
2022/09/12 06:20:42;;;;;;;34.08;25.08;;;14.70;99.90;;;;;;5080797;28;20418;-51
2022/09/12 06:23:07;;;;;;;34.00;25.77;;;14.70;99.90;;;;;;5078968;28;20598;-50
2022/09/12 06:25:33;;;;;;;39.25;27.60;;;14.80;99.90;;;;;;5081148;28;20516;-52
2022/09/12 06:27:58;;;;;;;39.25;25.08;;;14.80;99.90;;;;;;5080456;28;20555;-52
2022/09/12 06:30:24;;;;;;;39.53;25.80;;;14.90;99.90;;;;;;5081466;28;20497;-50
2022/09/12 06:32:50;;;;;;;37.30;25.90;;;14.90;99.90;;;;;;5079542;28;20052;-50
2022/09/12 06:35:16;;;;;;;37.83;26.33;;;14.90;99.90;;;;;;5081191;28;20047;-50
2022/09/12 06:37:43;;;;;;;40.53;26.85;;;15.00;99.90;;;;;;5085274;28;20096;-49
2022/09/12 06:40:09;;;;;;;40.80;27.55;;;15.00;99.90;;;;;;5100844;28;20036;-49
2022/09/12 06:42:35;;;;;;;35.33;26.38;;;15.10;99.90;;;;;;5080897;28;20068;-52
2022/09/12 06:45:01;;;;;;;38.78;26.92;;;15.00;99.90;;;;;;5080410;28;20047;-52
2022/09/12 06:47:27;;;;;;;38.50;26.73;;;15.00;99.90;;;;;;5081167;28;20063;-50
2022/09/12 06:49:52;;;;;;;36.78;27.48;;;15.10;99.90;;;;;;5079131;28;20047;-49
2022/09/12 06:52:18;;;;;;;41.22;27.88;;;15.00;99.90;;;;;;5080708;28;20041;-51
2022/09/12 06:54:43;;;;;;;40.33;27.45;;;15.20;99.90;;;;;;5080730;28;20036;-49
2022/09/12 06:57:09;;;;;;;40.55;28.33;;;15.10;99.90;;;;;;5080344;28;20386;-54
2022/09/12 06:59:35;;;;;;;40.97;30.25;;;15.20;99.90;;;;;;5080598;28;20106;-51
2022/09/12 07:02:00;;;;;;;42.70;29.23;;;15.10;99.90;;;;;;5080232;28;20432;-48
2022/09/12 07:04:26;;;;;;;42.78;29.17;;;15.10;99.90;;;;;;5080697;28;20040;-49
2022/09/12 07:06:52;;;;;;;40.45;28.48;;;15.20;99.90;;;;;;5079882;28;20052;-48
2022/09/12 07:09:18;;;;;;;45.72;29.20;;;15.30;99.90;;;;;;5080512;28;20519;-50
2022/09/12 07:11:45;;;;;;;48.00;32.25;;;15.30;99.90;;;;;;5080474;28;20048;-48
2022/09/12 07:14:13;;;;;;;41.25;29.67;;;15.30;99.90;;;;;;5080253;28;20032;-49
2022/09/12 07:16:39;;;;;;;48.40;31.30;;;15.30;99.90;;;;;;5079755;28;20043;-50
2022/09/12 07:19:06;;;;;;;46.80;31.65;;;15.30;99.90;;;;;;5080100;28;20045;-51
2022/09/12 07:21:32;;;;;;;50.63;32.85;;;15.50;99.90;;;;;;5080227;28;20089;-51
2022/09/12 07:23:58;;;;;;;49.72;30.38;;;15.60;99.90;;;;;;5079714;28;20048;-51
2022/09/12 07:26:25;;;;;;;48.50;31.45;;;15.60;99.90;;;;;;5080619;28;20040;-49
2022/09/12 07:28:53;;;;;;;50.42;33.58;;;15.60;99.90;;;;;;5079983;28;20045;-52
2022/09/12 07:31:21;;;;;;;51.97;34.08;;;15.70;99.90;;;;;;5079803;28;20076;-50
2022/09/12 07:33:49;;;;;;;49.85;33.50;;;15.60;99.90;;;;;;5080246;28;20415;-52
2022/09/12 07:36:16;;;;;;;54.40;35.00;;;15.60;99.90;;;;;;5078302;28;20048;-52
2022/09/12 07:38:43;;;;;;;54.88;35.38;;;15.70;99.90;;;;;;5092923;28;20041;-51
2022/09/12 07:41:09;;;;;;;55.50;35.38;;;15.70;99.90;;;;;;5091546;28;20119;-52
2022/09/12 07:43:35;;;;;;;55.50;36.00;;;15.80;99.90;;;;;;5078875;28;20048;-50
2022/09/12 07:46:01;;;;;;;55.10;34.70;;;15.80;99.90;;;;;;5079981;28;20044;-50
2022/09/12 07:48:27;;;;;;;56.28;34.22;;;15.80;99.90;;;;;;5079277;28;20040;-51
2022/09/12 07:51:00;;;;;;;53.90;34.97;;;15.90;99.90;;;;;;5078447;28;20155;-51
2022/09/12 07:53:31;;;;;;;56.72;35.83;;;15.90;99.90;;;;;;5079063;28;20045;-50
2022/09/12 07:55:57;;;;;;;54.42;33.75;;;15.90;99.90;;;;;;5080077;28;20083;-51
2022/09/12 07:58:23;;;;;;;56.53;34.65;;;15.90;99.90;;;;;;5079048;28;20036;-49
2022/09/12 08:00:49;;;;;;;54.35;34.13;;;16.00;99.90;;;;;;5079816;28;20041;-50
2022/09/12 08:03:15;;;;;;;56.67;35.28;;;16.10;99.90;;;;;;5079434;28;20055;-48
2022/09/12 08:05:41;;;;;;;55.90;35.97;;;16.10;99.90;;;;;;5079163;28;20566;-51
2022/09/12 08:08:06;;;;;;;57.00;35.08;;;16.10;99.90;;;;;;5079627;28;20051;-51
2022/09/12 08:10:32;;;;;;;57.83;36.28;;;16.20;99.90;;;;;;5078548;28;20048;-52
2022/09/12 08:12:58;;;;;;;54.38;35.30;;;16.20;99.90;;;;;;5079415;28;20070;-51
2022/09/12 08:15:24;;;;;;;55.42;36.05;;;16.10;99.90;;;;;;5078797;28;20075;-50
2022/09/12 08:17:49;;;;;;;54.63;33.95;;;16.20;99.90;;;;;;5079230;28;20048;-51
2022/09/12 08:20:16;;;;;;;58.50;36.13;;;16.20;99.90;;;;;;5078811;28;20037;-51
2022/09/12 08:22:43;;;;;;;59.25;35.58;;;16.40;99.90;;;;;;5078942;28;20044;-52
2022/09/12 08:25:09;;;;;;;57.42;36.20;;;16.50;99.90;;;;;;5079178;28;20040;-51
2022/09/12 08:27:35;;;;;;;55.13;35.00;;;16.60;99.90;;;;;;5078506;28;20032;-52
2022/09/12 08:30:01;;;;;;;54.80;34.75;;;16.70;99.90;;;;;;5078325;28;20123;-51
2022/09/12 08:32:26;;;;;;;54.17;34.80;;;16.70;99.90;;;;;;5078104;28;20170;-50
2022/09/12 08:34:52;;;;;;;56.30;36.08;;;16.80;99.90;;;;;;5077818;28;20092;-52
2022/09/12 08:37:18;;;;;;;55.75;35.67;;;16.80;99.90;;;;;;5079492;28;20044;-49
2022/09/12 08:39:44;;;;;;;54.78;34.80;;;16.90;99.90;;;;;;5098649;28;20123;-52
2022/09/12 08:42:23;;;;;;;52.97;34.65;;;16.90;99.90;;;;;;5082130;28;20044;-51
2022/09/12 08:45:03;;;;;;;53.83;35.50;;;16.90;99.90;;;;;;5077985;28;20044;-52
2022/09/12 08:47:36;;;;;;;52.60;33.38;;;16.90;99.90;;;;;;5078833;28;20052;-52
2022/09/12 08:50:12;;;;;;;52.50;34.90;;;17.10;99.90;;;;;;5151142;27;20599;-47
2022/09/12 08:52:57;;;;;;;57.22;36.83;;;17.10;99.90;;;;;;5130406;28;20047;-46
2022/09/12 08:55:30;;;;;;;54.65;35.70;;;17.20;99.90;;;;;;5130290;28;20082;-46
2022/09/12 08:57:56;;;;;;;57.13;36.28;;;17.30;99.90;;;;;;5130459;28;20039;-46
2022/09/12 09:00:22;;;;;;;53.33;34.75;;;17.40;99.90;;;;;;5112105;28;20039;-46
2022/09/12 09:03:13;;;;;;;52.28;33.92;;;17.50;99.90;;;;;;5130287;28;20077;-46
2022/09/12 09:05:56;;;;;;;53.53;34.50;;;17.40;99.90;;;;;;5130014;28;20069;-46
2022/09/12 09:08:31;;;;;;;52.80;34.03;;;17.50;99.90;;;;;;5130206;28;20048;-46
2022/09/12 09:11:02;;;;;;;59.65;37.20;;;17.70;99.90;;;;;;5129997;28;20436;-46
2022/09/12 09:16:47;;;;;;;56.15;34.78;;;17.80;99.90;;;;;;5129887;28;20134;-49
2022/09/12 09:19:35;;;;;;;47.03;32.75;;;17.80;99.90;;;;;;5129829;28;20055;-61
2022/09/12 09:22:11;;;;;;;52.40;33.50;;;18.00;99.90;;;;;;5111560;28;20047;-62
2022/09/12 09:24:54;;;;;;;50.80;34.28;;;18.00;99.90;;;;;;5129684;28;20050;-58
2022/09/12 09:27:28;;;;;;;50.10;33.78;;;18.00;99.90;;;;;;5129889;28;20031;-60
2022/09/12 09:29:55;;;;;;;52.33;33.42;;;18.10;99.90;;;;;;5129709;28;20047;-61
2022/09/12 09:32:29;;;;;;;52.20;33.78;;;18.20;99.90;;;;;;5129512;28;20137;-61
2022/09/12 09:34:55;;;;;;;53.53;34.83;;;18.40;99.90;;;;;;5129508;28;20092;-61
2022/09/12 09:37:36;;;;;;;53.00;33.25;;;18.50;99.90;;;;;;5127993;28;20047;-61
2022/09/12 09:40:13;;;;;;;45.05;32.10;;;18.70;99.90;;;;;;5109094;28;20089;-59
2022/09/12 09:42:55;;;;;;;49.90;34.28;;;18.90;99.90;;;;;;5073860;28;20942;-61
2022/09/12 09:45:23;;;;;;;52.25;34.08;;;19.00;99.90;;;;;;5090535;28;20036;-62
2022/09/12 09:48:11;;;;;;;52.60;33.55;;;19.00;99.90;;;;;;5108766;28;20387;-61
2022/09/12 09:50:37;;;;;;;54.70;34.80;;;19.10;99.90;;;;;;5108872;28;20051;-61
2022/09/12 09:53:04;;;;;;;47.78;31.88;;;19.10;99.90;;;;;;5108741;28;20046;-61
2022/09/12 09:55:40;;;;;;;50.80;34.88;;;19.30;99.90;;;;;;5108693;28;20376;-61
2022/09/12 09:58:05;;;;;;;48.65;32.25;;;19.30;99.90;;;;;;5108810;28;20097;-61
2022/09/12 10:00:36;;;;;;;46.40;32.25;;;19.40;99.90;;;;;;5100774;28;20488;-61
2022/09/12 10:03:31;;;;;;;50.30;33.38;;;19.50;99.90;;;;;;5094967;28;20044;-61
2022/09/12 10:06:06;;;;;;;52.97;35.05;;;19.50;99.90;;;;;;5094863;28;20040;-61
2022/09/12 10:08:34;;;;;;;49.17;32.72;;;19.50;99.90;;;;;;5094839;28;20036;-61
2022/09/12 10:11:05;;;;;;;46.65;31.15;;;19.60;99.90;;;;;;5094927;28;20051;-61
2022/09/12 10:13:40;;;;;;;49.17;31.25;;;19.80;99.90;;;;;;5094924;28;20040;-61
2022/09/12 10:16:20;;;;;;;49.17;30.23;;;19.90;99.90;;;;;;5095084;28;20047;-61
2022/09/12 10:18:47;;;;;;;42.45;29.35;;;20.10;99.90;;;;;;5095023;28;20048;-61
2022/09/12 10:21:16;;;;;;;40.45;25.77;;;20.20;99.90;;;;;;5094953;28;20445;-61
2022/09/12 10:23:43;;;;;;;38.33;24.15;;;20.40;99.90;;;;;;5094698;28;20044;-61
2022/09/12 10:26:15;;;;;;;33.85;23.70;;;20.40;99.90;;;;;;5094640;28;20093;-62
2022/09/12 10:28:48;;;;;;;30.33;21.08;;;20.40;99.90;;;;;;5094474;28;20047;-61
2022/09/12 10:31:27;;;;;;;29.77;18.88;;;20.40;99.90;;;;;;5094445;28;20688;-61
2022/09/12 10:33:56;;;;;;;27.10;18.55;;;20.50;99.90;;;;;;5094439;28;20040;-61
2022/09/12 10:36:22;;;;;;;30.80;19.92;;;20.60;99.90;;;;;;5076445;28;20139;-61
2022/09/12 10:38:54;;;;;;;27.08;18.45;;;20.60;99.90;;;;;;5094326;28;20036;-61
2022/09/12 10:41:20;;;;;;;27.83;17.88;;;20.60;99.90;;;;;;5094152;28;20047;-61
2022/09/12 10:43:47;;;;;;;25.67;17.92;;;20.50;99.90;;;;;;5076467;28;20040;-61
2022/09/12 10:46:22;;;;;;;29.35;19.02;;;20.60;99.90;;;;;;5094230;28;20044;-61
2022/09/12 10:48:50;;;;;;;28.33;18.98;;;20.50;99.90;;;;;;5093809;28;20059;-62
2022/09/12 10:51:27;;;;;;;28.17;19.00;;;20.50;99.90;;;;;;5093996;28;20495;-61
2022/09/12 10:53:59;;;;;;;27.05;18.20;;;20.70;99.90;;;;;;5075988;28;20480;-61
2022/09/12 10:56:31;;;;;;;27.63;17.40;;;20.70;99.90;;;;;;5094124;28;20040;-61
2022/09/12 10:59:14;;;;;;;26.15;16.65;;;20.80;99.90;;;;;;5093779;28;20115;-61
2022/09/12 11:01:51;;;;;;;25.50;16.48;;;21.00;99.90;;;;;;5093714;28;20072;-62
2022/09/12 11:04:42;;;;;;;28.95;16.75;;;21.10;99.90;;;;;;5093615;28;20118;-61
2022/09/12 11:07:34;;;;;;;32.10;20.88;;;21.10;99.90;;;;;;5093911;28;20051;-61
2022/09/12 11:10:26;;;;;;;29.48;18.42;;;21.20;99.90;;;;;;5093587;28;20059;-62
2022/09/12 11:12:58;;;;;;;27.88;17.17;;;21.20;99.90;;;;;;5092578;28;20051;-62
2022/09/12 11:15:54;;;;;;;26.45;16.13;;;21.40;99.90;;;;;;5093636;28;20048;-61
2022/09/12 11:18:44;;;;;;;21.20;12.98;;;21.40;99.90;;;;;;5093435;28;20044;-61
2022/09/12 11:21:22;;;;;;;19.13;11.95;;;21.60;99.90;;;;;;5093315;28;20166;-61
2022/09/12 11:24:09;;;;;;;19.23;12.55;;;21.50;99.90;;;;;;5093385;28;20039;-60
2022/09/12 11:26:48;;;;;;;25.02;13.45;;;21.60;99.90;;;;;;5093250;28;20047;-61
2022/09/12 11:29:29;;;;;;;21.25;13.85;;;21.60;99.90;;;;;;5074873;28;20101;-61
2022/09/12 11:32:23;;;;;;;16.95;11.43;;;21.70;99.90;;;;;;5093326;28;20500;-61
2022/09/12 11:34:59;;;;;;;17.85;10.65;;;21.80;99.90;;;;;;5093219;28;20110;-61
2022/09/12 11:37:43;;;;;;;15.20;9.73;;;21.80;99.90;;;;;;5093039;28;20097;-61
2022/09/12 11:40:43;;;;;;;14.32;8.90;;;21.90;99.90;;;;;;5093036;28;20070;-61
2022/09/12 11:43:44;;;;;;;15.65;9.32;;;22.10;99.90;;;;;;5053907;28;20056;-61
2022/09/12 11:46:37;;;;;;;15.25;9.07;;;22.10;99.90;;;;;;5078910;28;20131;-61
2022/09/12 11:49:05;;;;;;;15.00;9.07;;;21.90;99.90;;;;;;5092489;28;20133;-59
2022/09/12 11:51:40;;;;;;;14.25;7.75;;;21.90;99.90;;;;;;5092736;28;20066;-61
2022/09/12 11:54:12;;;;;;;11.50;6.82;;;21.90;99.90;;;;;;5093077;28;20395;-61
2022/09/12 11:56:43;;;;;;;11.15;7.00;;;21.90;99.90;;;;;;5092505;28;20186;-61
2022/09/12 11:59:27;;;;;;;11.90;7.10;;;21.90;99.90;;;;;;5092755;28;20365;-61
2022/09/12 12:01:58;;;;;;;14.88;9.13;;;22.10;99.90;;;;;;5092602;28;20040;-61
2022/09/12 12:04:35;;;;;;;14.13;9.10;;;22.10;99.90;;;;;;5092635;28;20064;-61
2022/09/12 12:07:06;;;;;;;16.52;9.93;;;22.20;99.90;;;;;;5092327;28;20108;-61
2022/09/12 12:09:32;;;;;;;12.73;8.52;;;22.10;99.90;;;;;;5092563;28;20403;-61
2022/09/12 12:12:03;;;;;;;15.70;9.88;;;22.20;99.90;;;;;;5074092;28;20127;-61
2022/09/12 12:14:38;;;;;;;14.13;8.67;;;22.30;99.90;;;;;;5092488;28;20040;-61
2022/09/12 12:17:04;;;;;;;14.23;9.48;;;22.40;99.90;;;;;;5092300;28;20047;-61
2022/09/12 12:19:35;;;;;;;13.85;9.48;;;22.50;99.90;;;;;;5092485;28;20040;-61
2022/09/12 12:22:24;;;;;;;16.83;10.65;;;22.50;99.90;;;;;;5092523;28;20406;-60
2022/09/12 12:25:11;;;;;;;15.45;10.05;;;22.50;99.90;;;;;;5081597;28;20056;-61
2022/09/12 12:28:00;;;;;;;17.15;10.52;;;22.30;99.90;;;;;;5092670;28;20169;-61
2022/09/12 12:30:28;;;;;;;17.55;9.95;;;22.20;99.90;;;;;;5092284;28;20048;-61
2022/09/12 12:33:20;;;;;;;15.95;9.63;;;22.10;99.90;;;;;;5092375;28;20043;-60
2022/09/12 12:35:58;;;;;;;;;;;22.10;99.90;;;;;;5079298;28;20048;-61
2022/09/12 12:38:32;;;;;;;14.88;8.40;;;22.10;99.90;;;;;;5092266;28;19916;-61
2022/09/12 12:41:22;;;;;;;14.68;9.10;;;22.20;99.90;;;;;;5092256;28;20534;-61
2022/09/12 12:43:53;;;;;;;14.70;8.45;;;22.20;99.90;;;;;;5045874;28;20055;-60
2022/09/12 12:46:21;;;;;;;12.40;8.05;;;22.30;99.90;;;;;;5092067;28;20082;-61
2022/09/12 12:48:52;;;;;;;13.98;8.65;;;22.50;99.90;;;;;;5091717;28;20048;-61
2022/09/12 12:51:31;;;;;;;14.48;8.57;;;22.70;99.90;;;;;;5091927;28;20051;-61
2022/09/12 12:54:00;;;;;;;12.68;7.97;;;22.50;99.90;;;;;;5091800;28;20036;-61
2022/09/12 12:56:40;;;;;;;13.90;8.02;;;22.60;99.90;;;;;;5091902;28;20040;-61